Time;durP1;ratioP1;P1;durP2;ratioP2;P2;SDS_P1;SDS_P2;PMS_P1;PMS_P2;Temp;Humidity;BMP_temperature;BMP_pressure;BME280_temperature;BME280_humidity;BME280_pressure;Samples;Min_cycle;Max_cycle;Signal;HPM_P1;HPM_P2
2024/01/29 00:00:40;;;;;;;3.80;2.60;;;;;;;-1.31;100.00;102801.99;104937;1257;73136;-52
2024/01/29 00:03:07;;;;;;;7.50;4.80;;;;;;;-1.30;100.00;102799.80;105128;1255;60965;-50
2024/01/29 00:05:35;;;;;;;6.90;3.90;;;;;;;-1.30;100.00;102803.97;105308;1252;60531;-49
2024/01/29 00:08:03;;;;;;;6.40;4.30;;;;;;;-1.34;100.00;102797.80;105165;1254;71939;-51
2024/01/29 00:10:30;;;;;;;12.50;5.80;;;;;;;-1.39;100.00;102795.25;105144;1257;66664;-51
2024/01/29 00:12:57;;;;;;;24.30;12.30;;;;;;;-1.45;100.00;102796.22;105160;1260;71742;-51
2024/01/29 00:15:25;;;;;;;15.30;8.60;;;;;;;-1.51;100.00;102796.25;105347;1254;60448;-51
2024/01/29 00:17:52;;;;;;;12.10;6.80;;;;;;;-1.58;100.00;102797.18;105046;1259;60516;-51
2024/01/29 00:20:20;;;;;;;6.50;4.00;;;;;;;-1.64;100.00;102795.99;104988;1259;74489;-51
2024/01/29 00:22:47;;;;;;;6.10;3.90;;;;;;;-1.69;100.00;102798.54;105000;1254;67510;-51
2024/01/29 00:25:14;;;;;;;5.10;2.80;;;;;;;-1.74;100.00;102788.42;104999;1254;73951;-51
2024/01/29 00:27:42;;;;;;;4.50;2.60;;;;;;;-1.75;100.00;102785.02;104951;1254;60930;-52
2024/01/29 00:30:10;;;;;;;4.40;2.50;;;;;;;-1.75;100.00;102786.77;105601;1254;60521;-51
2024/01/29 00:32:40;;;;;;;4.20;1.90;;;;;;;-1.72;100.00;102792.77;105010;1257;71901;-51
2024/01/29 00:35:08;;;;;;;5.20;2.40;;;;;;;-1.68;100.00;102789.63;106444;1254;66098;-51
2024/01/29 00:37:35;;;;;;;6.00;3.70;;;;;;;-1.63;100.00;102797.62;105016;1259;70774;-52
2024/01/29 00:40:04;;;;;;;5.70;3.20;;;;;;;-1.60;100.00;102795.29;105038;1256;60717;-52
2024/01/29 00:42:32;;;;;;;8.80;4.10;;;;;;;-1.58;100.00;102795.58;106055;1253;60488;-52
2024/01/29 00:45:00;;;;;;;12.40;4.50;;;;;;;-1.59;100.00;102792.19;105103;1256;72135;-52
2024/01/29 00:47:27;;;;;;;11.90;5.20;;;;;;;-1.63;100.00;102790.60;104846;1254;67800;-52
2024/01/29 00:49:54;;;;;;;6.00;4.00;;;;;;;-1.67;100.00;102787.37;104837;1253;71425;-52
2024/01/29 00:52:22;;;;;;;9.40;5.50;;;;;;;-1.70;100.00;102786.88;104823;1257;60449;-54
2024/01/29 00:54:50;;;;;;;9.70;5.60;;;;;;;-1.74;100.00;102787.70;105144;1254;60672;-53
2024/01/29 00:57:20;;;;;;;9.50;5.80;;;;;;;-1.81;100.00;102785.63;105152;1252;72645;-53
2024/01/29 00:59:47;;;;;;;7.80;5.30;;;;;;;-1.87;100.00;102781.61;105188;1252;66782;-54
2024/01/29 01:02:15;;;;;;;7.60;4.70;;;;;;;-1.92;100.00;102781.54;105019;1259;71851;-53
2024/01/29 01:04:42;;;;;;;6.30;4.50;;;;;;;-1.97;100.00;102779.52;104732;1253;61387;-54
2024/01/29 01:07:09;;;;;;;5.30;4.00;;;;;;;-2.00;100.00;102778.68;104699;1255;60316;-53
2024/01/29 01:09:37;;;;;;;7.40;3.40;;;;;;;-2.01;100.00;102779.15;107298;1257;72250;-53
2024/01/29 01:12:05;;;;;;;4.20;3.60;;;;;;;-2.00;100.00;102779.90;105082;1254;65118;-54
2024/01/29 01:14:33;;;;;;;9.00;3.70;;;;;;;-1.98;100.00;102782.32;105136;1254;72490;-54
2024/01/29 01:17:00;;;;;;;6.10;4.30;;;;;;;-1.96;100.00;102786.98;104953;1257;60435;-54
2024/01/29 01:19:27;;;;;;;4.70;3.40;;;;;;;-1.94;100.00;102787.06;105053;1254;60569;-54
2024/01/29 01:21:55;;;;;;;6.00;4.00;;;;;;;-1.95;100.00;102785.46;104743;1256;74272;-53
2024/01/29 01:24:22;;;;;;;10.00;4.20;;;;;;;-1.94;100.00;102779.50;104989;1256;65992;-54
2024/01/29 01:26:49;;;;;;;8.50;4.70;;;;;;;-1.98;100.00;102778.45;105116;1252;72183;-55
2024/01/29 01:29:18;;;;;;;10.60;6.10;;;;;;;-2.02;100.00;102780.14;104946;1254;60893;-55
2024/01/29 01:31:45;;;;;;;7.90;5.10;;;;;;;-2.09;100.00;102777.18;104916;1259;60371;-55
2024/01/29 01:34:12;;;;;;;7.70;5.60;;;;;;;-2.13;100.00;102773.42;104924;1255;73930;-55
2024/01/29 01:36:40;;;;;;;12.60;7.10;;;;;;;-2.18;100.00;102772.64;105025;1254;64759;-53
2024/01/29 01:39:08;;;;;;;10.80;6.20;;;;;;;-2.22;100.00;102765.20;104977;1259;72698;-54
2024/01/29 01:41:35;;;;;;;6.60;4.30;;;;;;;-2.26;100.00;102766.08;104888;1254;59489;-55
2024/01/29 01:44:03;;;;;;;11.00;4.70;;;;;;;-2.30;100.00;102770.63;104955;1252;59955;-54
2024/01/29 01:46:30;;;;;;;8.10;4.90;;;;;;;-2.33;100.00;102779.30;104912;1259;71764;-53
2024/01/29 01:48:58;;;;;;;12.60;5.70;;;;;;;-2.34;100.00;102786.60;109101;1258;65538;-54
2024/01/29 01:51:25;;;;;;;12.50;6.10;;;;;;;-2.34;100.00;102783.42;108984;1254;71487;-54
2024/01/29 01:53:53;;;;;;;8.50;5.00;;;;;;;-2.33;100.00;102783.50;109073;1253;59309;-55
2024/01/29 01:56:20;;;;;;;11.20;6.10;;;;;;;-2.32;100.00;102781.95;109063;1252;58806;-55
2024/01/29 01:58:48;;;;;;;9.80;5.80;;;;;;;-2.32;100.00;102783.23;109326;1253;74409;-55
2024/01/29 02:01:15;;;;;;;13.70;7.70;;;;;;;-2.32;100.00;102783.73;107288;1257;67113;-54
2024/01/29 02:03:43;;;;;;;12.90;7.30;;;;;;;-2.32;100.00;102787.27;105027;1256;73178;-54
2024/01/29 02:06:10;;;;;;;11.80;6.10;;;;;;;-2.33;100.00;102788.27;104965;1254;60477;-54
2024/01/29 02:08:38;;;;;;;10.30;6.20;;;;;;;-2.36;100.00;102787.04;104806;1255;60488;-53
2024/01/29 02:11:05;;;;;;;10.70;7.30;;;;;;;-2.40;100.00;102789.45;109092;1253;74124;-55
2024/01/29 02:13:33;;;;;;;11.20;7.30;;;;;;;-2.45;100.00;102794.42;109129;1253;65997;-55
2024/01/29 02:16:02;;;;;;;13.20;7.70;;;;;;;-2.51;100.00;102795.17;109075;1254;73563;-55
2024/01/29 02:18:30;;;;;;;12.60;7.70;;;;;;;-2.57;100.00;102801.17;109194;1257;59287;-55
2024/01/29 02:20:58;;;;;;;10.60;6.90;;;;;;;-2.62;100.00;102801.42;109058;1254;60068;-55
2024/01/29 02:23:25;;;;;;;9.80;6.00;;;;;;;-2.65;100.00;102802.70;105583;1254;74421;-54
2024/01/29 02:25:52;;;;;;;9.90;5.20;;;;;;;-2.69;100.00;102800.93;105095;1257;66109;-54
2024/01/29 02:28:20;;;;;;;12.10;6.40;;;;;;;-2.69;100.00;102797.59;105275;1254;72628;-54
2024/01/29 02:30:47;;;;;;;10.70;6.50;;;;;;;-2.69;100.00;102794.77;104930;1254;60546;-54
2024/01/29 02:33:15;;;;;;;13.20;7.30;;;;;;;-2.66;100.00;102799.45;107278;1254;58982;-55
2024/01/29 02:35:48;;;;;;;12.10;7.50;;;;;;;-2.64;100.00;102798.15;105675;1256;73883;-55
2024/01/29 02:38:15;;;;;;;10.70;6.90;;;;;;;-2.64;100.00;102800.98;105022;1259;67229;-55
2024/01/29 02:40:43;;;;;;;11.80;7.90;;;;;;;-2.64;100.00;102799.42;108123;1258;73110;-55
2024/01/29 02:43:10;;;;;;;13.70;8.90;;;;;;;-2.65;100.00;102800.60;105233;1254;60550;-54
2024/01/29 02:45:38;;;;;;;15.20;9.80;;;;;;;-2.66;100.00;102804.05;104684;1256;60533;-55
2024/01/29 02:48:05;;;;;;;15.40;9.80;;;;;;;-2.69;100.00;102807.23;104867;1259;73818;-55
2024/01/29 02:50:33;;;;;;;20.20;10.70;;;;;;;-2.73;100.00;102808.41;105511;1257;66054;-55
2024/01/29 02:53:00;;;;;;;17.90;10.50;;;;;;;-2.79;100.00;102805.66;105116;1255;71378;-55
2024/01/29 02:55:27;;;;;;;14.50;9.50;;;;;;;-2.81;100.00;102806.56;105058;1259;63256;-55
2024/01/29 02:57:55;;;;;;;19.80;10.60;;;;;;;-2.86;100.00;102809.46;104979;1257;60485;-55
2024/01/29 03:00:22;;;;;;;16.00;9.90;;;;;;;-2.90;100.00;102811.73;104787;1254;72652;-55
2024/01/29 03:02:49;;;;;;;16.40;10.00;;;;;;;-2.93;100.00;102817.70;104820;1259;65774;-55
2024/01/29 03:05:17;;;;;;;16.50;9.00;;;;;;;-2.96;100.00;102812.23;105014;1255;70436;-55
2024/01/29 03:07:45;;;;;;;14.50;8.80;;;;;;;-2.97;100.00;102813.41;104891;1254;60550;-55
2024/01/29 03:10:12;;;;;;;14.30;7.80;;;;;;;-2.97;100.00;102812.90;104968;1254;60549;-55
2024/01/29 03:12:39;;;;;;;10.50;6.70;;;;;;;-2.95;100.00;102817.58;104791;1259;72574;-55
2024/01/29 03:15:07;;;;;;;14.90;7.50;;;;;;;-2.93;100.00;102816.45;105913;1256;66923;-55
2024/01/29 03:17:35;;;;;;;12.20;6.60;;;;;;;-2.91;100.00;102816.54;104999;1254;73253;-55
2024/01/29 03:20:03;;;;;;;11.00;7.30;;;;;;;-2.91;100.00;102813.61;105278;1257;59365;-55
2024/01/29 03:22:31;;;;;;;9.90;6.20;;;;;;;-2.88;100.00;102808.98;105475;1253;61011;-55
2024/01/29 03:24:58;;;;;;;11.80;7.90;;;;;;;-2.87;100.00;102807.14;104991;1257;73894;-55
2024/01/29 03:27:25;;;;;;;12.90;7.60;;;;;;;-2.88;100.00;102805.85;104947;1257;66901;-55
2024/01/29 03:29:53;;;;;;;14.20;9.40;;;;;;;-2.92;100.00;102806.34;105583;1254;71534;-55
2024/01/29 03:32:20;;;;;;;13.10;8.20;;;;;;;-2.97;100.00;102806.40;104773;1258;60487;-55
2024/01/29 03:34:48;;;;;;;14.20;9.10;;;;;;;-3.03;100.00;102806.92;105071;1254;60735;-55
2024/01/29 03:37:15;;;;;;;13.20;8.70;;;;;;;-3.10;100.00;102809.05;104815;1254;73888;-54
2024/01/29 03:39:42;;;;;;;15.00;9.70;;;;;;;-3.17;100.00;102807.04;105014;1254;66015;-55
2024/01/29 03:42:10;;;;;;;15.80;10.30;;;;;;;-3.23;100.00;102806.16;105093;1257;71484;-55
2024/01/29 03:44:37;;;;;;;16.60;10.20;;;;;;;-3.29;100.00;102806.73;104974;1254;60702;-55
2024/01/29 03:47:04;;;;;;;16.10;11.00;;;;;;;-3.36;100.00;102807.92;104945;1253;60675;-56
2024/01/29 03:49:32;;;;;;;14.00;8.90;;;;;;;-3.40;100.00;102807.66;105072;1254;74018;-55
2024/01/29 03:51:59;;;;;;;15.30;8.50;;;;;;;-3.44;100.00;102811.52;105854;1257;65966;-55
2024/01/29 03:54:27;;;;;;;18.00;9.20;;;;;;;-3.46;100.00;102808.54;105898;1258;72732;-55
2024/01/29 03:56:54;;;;;;;12.40;7.30;;;;;;;-3.46;100.00;102809.63;104909;1253;60540;-55
2024/01/29 03:59:21;;;;;;;12.10;7.90;;;;;;;-3.43;100.00;102814.36;104867;1254;60517;-55
2024/01/29 04:01:48;;;;;;;12.60;7.70;;;;;;;-3.38;100.00;102811.78;104931;1258;73933;-55
2024/01/29 04:04:16;;;;;;;11.60;7.50;;;;;;;-3.33;100.00;102811.61;105023;1257;65327;-54
2024/01/29 04:06:46;;;;;;;12.60;6.90;;;;;;;-3.28;100.00;102815.23;104909;1256;71771;-55
2024/01/29 04:09:20;;;;;;;14.20;7.90;;;;;;;-3.21;100.00;102814.71;109272;1253;58466;-55
2024/01/29 04:11:50;;;;;;;16.60;9.60;;;;;;;-3.16;100.00;102820.63;105567;1256;60465;-55
2024/01/29 04:14:18;;;;;;;15.30;9.30;;;;;;;-3.12;100.00;102824.20;104850;1259;73849;-54
2024/01/29 04:16:49;;;;;;;18.10;9.80;;;;;;;-3.11;100.00;102826.39;104901;1257;65707;-56
2024/01/29 04:19:17;;;;;;;14.20;8.60;;;;;;;-3.12;100.00;102822.74;104784;1254;73795;-53
2024/01/29 04:21:45;;;;;;;17.20;9.10;;;;;;;-3.14;100.00;102820.02;104847;1259;60312;-55
2024/01/29 04:24:13;;;;;;;14.30;9.40;;;;;;;-3.14;100.00;102816.50;105525;1252;60441;-55
2024/01/29 04:26:40;;;;;;;17.90;10.10;;;;;;;-3.16;100.00;102816.44;105121;1254;72926;-55
2024/01/29 04:29:10;;;;;;;15.70;9.50;;;;;;;-3.19;100.00;102812.21;108380;1254;67275;-56
2024/01/29 04:31:38;;;;;;;16.50;10.80;;;;;;;-3.23;100.00;102813.02;105005;1255;73392;-53
2024/01/29 04:34:06;;;;;;;18.20;10.20;;;;;;;-3.29;100.00;102811.09;105089;1257;60572;-54
2024/01/29 04:36:33;;;;;;;15.30;9.50;;;;;;;-3.34;100.00;102814.86;108248;1256;60546;-55
2024/01/29 04:39:00;;;;;;;18.50;10.10;;;;;;;-3.35;100.00;102820.80;104963;1260;72631;-52
2024/01/29 04:41:28;;;;;;;13.60;8.40;;;;;;;-3.33;100.00;102826.34;105020;1256;67340;-53
2024/01/29 04:43:55;;;;;;;12.70;7.90;;;;;;;-3.31;100.00;102829.10;104780;1254;73114;-54
2024/01/29 04:46:23;;;;;;;14.20;8.50;;;;;;;-3.26;100.00;102819.34;104826;1254;60792;-54
2024/01/29 04:48:50;;;;;;;16.10;10.10;;;;;;;-3.23;100.00;102822.01;104979;1255;60747;-54
2024/01/29 04:51:20;;;;;;;18.80;10.60;;;;;;;-3.19;100.00;102823.65;106953;1256;74001;-55
2024/01/29 04:53:47;;;;;;;18.30;12.30;;;;;;;-3.14;100.00;102828.98;105071;1256;67671;-54
2024/01/29 04:56:15;;;;;;;20.00;11.80;;;;;;;-3.09;100.00;102828.94;109090;1254;72111;-55
2024/01/29 04:58:42;;;;;;;17.30;11.30;;;;;;;-3.07;100.00;102824.86;109169;1254;59823;-56
2024/01/29 05:01:09;;;;;;;18.90;11.10;;;;;;;-3.06;100.00;102830.86;109151;1254;60049;-56
2024/01/29 05:03:37;;;;;;;18.40;11.40;;;;;;;-3.05;100.00;102841.26;109132;1254;74321;-55
2024/01/29 05:06:06;;;;;;;19.70;11.90;;;;;;;-3.06;100.00;102844.06;109117;1254;65984;-55
2024/01/29 05:08:33;;;;;;;20.80;12.00;;;;;;;-3.07;100.00;102840.12;109241;1252;72720;-55
2024/01/29 05:11:00;;;;;;;16.80;11.60;;;;;;;-3.08;100.00;102843.59;109173;1257;59014;-56
2024/01/29 05:13:28;;;;;;;18.80;10.20;;;;;;;-3.07;100.00;102843.27;108981;1257;60504;-55
2024/01/29 05:15:55;;;;;;;18.70;9.90;;;;;;;-3.06;100.00;102846.16;108954;1253;73825;-55
2024/01/29 05:18:23;;;;;;;13.90;8.10;;;;;;;-3.02;100.00;102851.76;109149;1256;67019;-55
2024/01/29 05:20:50;;;;;;;20.10;11.00;;;;;;;-2.98;100.00;102853.77;109128;1254;72709;-55
2024/01/29 05:23:17;;;;;;;20.00;11.50;;;;;;;-2.92;100.00;102852.71;105763;1256;60932;-54
2024/01/29 05:25:45;;;;;;;18.50;11.20;;;;;;;-2.87;100.00;102846.98;104911;1261;60512;-55
2024/01/29 05:28:12;;;;;;;17.60;10.40;;;;;;;-2.84;100.00;102850.35;104997;1257;73852;-55
2024/01/29 05:30:40;;;;;;;19.60;10.60;;;;;;;-2.81;100.00;102850.70;104902;1253;65925;-52
2024/01/29 05:33:07;;;;;;;15.90;10.70;;;;;;;-2.79;100.00;102846.40;105088;1257;72806;-53
2024/01/29 05:35:54;;;;;;;20.40;11.60;;;;;;;-2.78;100.00;102854.37;106230;1255;61793;-55
2024/01/29 05:38:22;;;;;;;18.40;12.40;;;;;;;-2.78;100.00;102860.68;107354;1254;60520;-54
2024/01/29 05:40:49;;;;;;;22.30;13.70;;;;;;;-2.79;100.00;102875.38;104649;1260;72728;-54
2024/01/29 05:43:16;;;;;;;19.40;13.30;;;;;;;-2.82;100.00;102878.92;104906;1254;69627;-54
2024/01/29 05:45:46;;;;;;;18.80;12.30;;;;;;;-2.89;100.00;102877.29;109057;1253;72652;-54
2024/01/29 05:48:13;;;;;;;17.80;11.40;;;;;;;-2.97;100.00;102874.75;105774;1254;60454;-54
2024/01/29 05:50:42;;;;;;;19.50;12.80;;;;;;;-3.02;100.00;102872.19;105549;1258;60626;-54
2024/01/29 05:53:10;;;;;;;22.40;13.80;;;;;;;-3.06;100.00;102874.76;106909;1260;73910;-53
2024/01/29 05:55:37;;;;;;;22.10;12.90;;;;;;;-3.08;100.00;102881.85;105413;1260;65825;-54
2024/01/29 05:58:06;;;;;;;19.40;11.90;;;;;;;-3.12;100.00;102877.94;105015;1260;71781;-54
2024/01/29 06:00:34;;;;;;;17.20;10.30;;;;;;;-3.14;100.00;102876.58;105284;1258;60758;-54
2024/01/29 06:03:01;;;;;;;20.00;11.60;;;;;;;-3.14;100.00;102882.73;105077;1259;60507;-54
2024/01/29 06:05:28;;;;;;;15.90;9.50;;;;;;;-3.14;100.00;102891.70;106906;1258;73895;-54
2024/01/29 06:07:56;;;;;;;15.80;9.80;;;;;;;-3.17;100.00;102892.94;105249;1259;64832;-54
2024/01/29 06:10:24;;;;;;;20.80;11.20;;;;;;;-3.17;100.00;102892.96;104922;1260;73311;-54
2024/01/29 06:12:51;;;;;;;21.10;11.90;;;;;;;-3.14;100.00;102895.90;104958;1260;60543;-55
2024/01/29 06:15:19;;;;;;;17.30;10.80;;;;;;;-3.12;100.00;102899.55;105844;1253;60463;-56
2024/01/29 06:17:46;;;;;;;18.40;11.80;;;;;;;-3.12;100.00;102906.59;104972;1260;74304;-54
2024/01/29 06:20:14;;;;;;;20.00;11.40;;;;;;;-3.13;100.00;102907.40;105062;1252;67329;-54
2024/01/29 06:22:45;;;;;;;22.60;13.70;;;;;;;-3.12;100.00;102914.48;105025;1258;72170;-54
2024/01/29 06:25:13;;;;;;;22.10;12.60;;;;;;;-3.11;100.00;102911.95;104974;1259;60436;-54
2024/01/29 06:27:40;;;;;;;20.30;12.50;;;;;;;-3.10;100.00;102910.77;105969;1257;60585;-54
2024/01/29 06:30:09;;;;;;;22.00;13.70;;;;;;;-3.08;100.00;102912.60;105506;1253;72674;-55
2024/01/29 06:32:36;;;;;;;20.80;13.30;;;;;;;-3.06;100.00;102917.80;105119;1254;66865;-54
2024/01/29 06:35:04;;;;;;;22.60;13.90;;;;;;;-3.05;100.00;102926.82;105062;1260;71775;-54
2024/01/29 06:37:32;;;;;;;21.60;12.60;;;;;;;-3.02;100.00;102936.84;104806;1257;60622;-54
2024/01/29 06:40:00;;;;;;;24.00;15.00;;;;;;;-2.97;100.00;102934.14;104982;1254;60600;-54
2024/01/29 06:45:07;;;;;;;23.90;14.00;;;;;;;-2.84;100.00;103034.35;102039;1292;599816;-53
2024/01/29 06:47:35;;;;;;;19.80;11.80;;;;;;;-2.76;100.00;103045.54;104458;1267;61312;-53
2024/01/29 06:50:02;;;;;;;25.30;14.60;;;;;;;-2.66;100.00;103031.34;104173;1267;60003;-53
2024/01/29 06:52:30;;;;;;;27.30;14.10;;;;;;;-2.56;100.00;103025.41;104340;1272;72743;-53
2024/01/29 06:54:57;;;;;;;29.90;17.40;;;;;;;-2.46;100.00;103024.75;104099;1272;66772;-53
2024/01/29 06:57:24;;;;;;;32.80;18.50;;;;;;;-2.36;100.00;103020.45;104073;1269;72729;-53
2024/01/29 06:59:52;;;;;;;28.30;16.70;;;;;;;-2.26;100.00;103019.39;104251;1268;196364;-53
2024/01/29 07:02:21;;;;;;;26.10;16.50;;;;;;;-2.16;100.00;103017.63;104381;1267;59234;-53
2024/01/29 07:04:49;;;;;;;34.20;19.70;;;;;;;-2.08;100.00;103017.90;104261;1264;70212;-53
2024/01/29 07:07:16;;;;;;;35.00;20.20;;;;;;;-2.01;100.00;103018.66;104519;1264;65478;-53
2024/01/29 07:09:43;;;;;;;37.80;21.90;;;;;;;-1.96;100.00;103019.64;104581;1269;71496;-53
2024/01/29 07:12:14;;;;;;;47.30;28.20;;;;;;;-1.91;100.00;103025.17;104236;1266;59989;-53
2024/01/29 07:14:42;;;;;;;57.80;30.90;;;;;;;-1.88;100.00;103027.27;104798;1263;60462;-53
2024/01/29 07:17:09;;;;;;;56.30;30.20;;;;;;;-1.88;100.00;103023.09;104156;1263;73890;-52
2024/01/29 07:19:37;;;;;;;43.30;26.00;;;;;;;-1.84;100.00;103024.67;104115;1264;64750;-52
2024/01/29 07:22:08;;;;;;;24.70;16.20;;;;;;;-1.81;100.00;103027.51;104122;1266;71455;-52
2024/01/29 07:24:36;;;;;;;28.20;17.00;;;;;;;-1.81;100.00;103029.09;104868;1269;59759;-52
2024/01/29 07:27:04;;;;;;;24.40;15.40;;;;;;;-1.80;100.00;103030.20;104273;1263;60509;-52
2024/01/29 07:29:31;;;;;;;24.50;14.80;;;;;;;-1.75;100.00;103029.76;104574;1263;71894;-52
2024/01/29 07:31:59;;;;;;;22.60;13.50;;;;;;;-1.69;100.00;103030.27;105404;1263;65068;-52
2024/01/29 07:34:26;;;;;;;24.40;13.40;;;;;;;-1.61;100.00;103026.81;104145;1267;72796;-52
2024/01/29 07:36:54;;;;;;;20.30;12.60;;;;;;;-1.53;100.00;103031.11;108000;1263;59759;-52
2024/01/29 07:39:22;;;;;;;23.00;13.70;;;;;;;-1.44;100.00;103036.50;104733;1264;60086;-50
2024/01/29 07:41:49;;;;;;;19.80;13.70;;;;;;;-1.36;100.00;103039.59;104342;1264;73331;-53
2024/01/29 07:44:17;;;;;;;22.00;13.60;;;;;;;-1.28;100.00;103040.19;108400;1266;67486;-53
2024/01/29 07:46:44;;;;;;;21.90;13.00;;;;;;;-1.19;100.00;103035.36;108459;1264;71436;-53
2024/01/29 07:49:12;;;;;;;18.50;12.20;;;;;;;-1.12;100.00;103036.98;108337;1263;58057;-53
2024/01/29 07:51:42;;;;;;;13.10;8.60;;;;;;;-1.05;100.00;103035.55;108444;1264;60094;-53
2024/01/29 07:54:10;;;;;;;12.60;9.30;;;;;;;-1.00;100.00;103040.77;107425;1263;73100;-53
2024/01/29 07:56:39;;;;;;;17.20;10.50;;;;;;;-0.94;100.00;103041.23;104099;1270;67109;-54
2024/01/29 07:59:07;;;;;;;15.10;10.40;;;;;;;-0.89;100.00;103042.38;108435;1263;73175;-54
2024/01/29 08:01:34;;;;;;;20.80;12.70;;;;;;;-0.85;100.00;103046.29;108384;1263;58047;-55
2024/01/29 08:04:03;;;;;;;18.10;12.40;;;;;;;-0.81;100.00;103051.44;108428;1263;57884;-55
2024/01/29 08:06:32;;;;;;;20.40;12.30;;;;;;;-0.77;100.00;103054.80;108303;1264;73178;-54
2024/01/29 08:08:59;;;;;;;18.70;11.80;;;;;;;-0.71;100.00;103060.90;108328;1263;67033;-55
2024/01/29 08:11:27;;;;;;;21.10;12.80;;;;;;;-0.65;100.00;103058.36;108360;1263;73763;-54
2024/01/29 08:13:54;;;;;;;20.30;13.30;;;;;;;-0.58;100.00;103061.05;108417;1263;59682;-54
2024/01/29 08:16:22;;;;;;;20.80;12.50;;;;;;;-0.53;100.00;103059.35;108334;1263;61050;-54
2024/01/29 08:18:49;;;;;;;17.10;9.70;;;;;;;-0.49;100.00;103066.22;108405;1263;72897;-54
2024/01/29 08:21:17;;;;;;;29.90;16.60;;;;;;;-0.43;100.00;103069.02;108476;1263;67781;-54
2024/01/29 08:23:45;;;;;;;28.90;16.70;;;;;;;-0.34;100.00;103074.56;107170;1266;72728;-53
2024/01/29 08:26:12;;;;;;;27.60;14.80;;;;;;;-0.27;100.00;103071.02;104416;1266;59750;-53
2024/01/29 08:28:39;;;;;;;12.70;7.90;;;;;;;-0.20;100.00;103068.34;104339;1269;59641;-54
2024/01/29 08:31:08;;;;;;;11.00;7.30;;;;;;;-0.13;100.00;103071.70;104212;1264;73516;-55
2024/01/29 08:33:36;;;;;;;9.30;7.00;;;;;;;-0.05;100.00;103067.85;104243;1266;67504;-55
2024/01/29 08:36:04;;;;;;;11.90;7.90;;;;;;;0.01;100.00;103071.30;105017;1269;71036;-54
2024/01/29 08:38:31;;;;;;;13.00;7.90;;;;;;;0.05;100.00;103075.56;104244;1270;59644;-55
2024/01/29 08:40:59;;;;;;;11.70;7.90;;;;;;;0.08;100.00;103083.48;104142;1264;60083;-53
2024/01/29 08:43:26;;;;;;;10.00;6.00;;;;;;;0.10;100.00;103086.73;104203;1267;73118;-52
2024/01/29 08:45:54;;;;;;;13.30;7.00;;;;;;;0.12;100.00;103086.66;104172;1263;65810;-53
2024/01/29 08:48:21;;;;;;;10.30;6.70;;;;;;;0.13;100.00;103089.02;104220;1265;73221;-54
2024/01/29 08:50:49;;;;;;;7.40;6.00;;;;;;;0.12;100.00;103091.23;104333;1267;59650;-53
2024/01/29 08:53:17;;;;;;;10.10;5.80;;;;;;;0.13;100.00;103089.21;104345;1264;60111;-54
2024/01/29 08:55:45;;;;;;;7.10;5.50;;;;;;;0.16;100.00;103094.80;104581;1269;72190;-56
2024/01/29 08:58:14;;;;;;;4.80;3.50;;;;;;;0.17;100.00;103096.09;104568;1269;66842;-54
2024/01/29 09:00:42;;;;;;;5.90;3.30;;;;;;;0.19;100.00;103096.38;104226;1266;72903;-56
2024/01/29 09:03:10;;;;;;;5.00;3.10;;;;;;;0.24;100.00;103100.48;108168;1263;59743;-54
2024/01/29 09:05:42;;;;;;;6.60;4.30;;;;;;;0.27;100.00;103108.41;104442;1266;59983;-52
2024/01/29 09:08:09;;;;;;;7.30;4.00;;;;;;;0.32;100.00;103112.00;104509;1269;72026;-53
2024/01/29 09:10:45;;;;;;;7.50;5.30;;;;;;;0.35;100.00;103120.27;104426;1269;66781;-55
2024/01/29 09:13:15;;;;;;;9.30;5.40;;;;;;;0.38;100.00;103121.27;104050;1263;73587;-55
2024/01/29 09:15:43;;;;;;;7.40;4.90;;;;;;;0.40;100.00;103121.36;104154;1266;59628;-53
2024/01/29 09:18:11;;;;;;;9.70;4.50;;;;;;;0.40;100.00;103121.58;104277;1270;61052;-54
2024/01/29 09:20:38;;;;;;;7.70;5.10;;;;;;;0.41;100.00;103123.74;104269;1263;73210;-54
2024/01/29 09:23:07;;;;;;;6.50;3.40;;;;;;;0.41;100.00;103126.38;104291;1266;65533;-53
2024/01/29 09:25:34;;;;;;;6.30;3.70;;;;;;;0.40;100.00;103128.65;105196;1269;73117;-54
2024/01/29 09:28:02;;;;;;;4.30;2.50;;;;;;;0.36;100.00;103123.31;104374;1266;59679;-54
2024/01/29 09:30:30;;;;;;;4.90;2.60;;;;;;;0.37;100.00;103117.56;104254;1269;59718;-54
2024/01/29 09:32:57;;;;;;;4.20;3.00;;;;;;;0.40;100.00;103120.14;105691;1269;73350;-54
2024/01/29 09:35:41;;;;;;;5.90;3.20;;;;;;;0.37;100.00;103123.88;104809;1264;66260;-54
2024/01/29 09:38:08;;;;;;;2.90;1.80;;;;;;;0.35;100.00;103119.17;104081;1270;71824;-56
2024/01/29 09:40:36;;;;;;;1.90;1.00;;;;;;;0.36;100.00;103114.13;104048;1270;60180;-53
2024/01/29 09:43:05;;;;;;;2.20;1.60;;;;;;;0.33;100.00;103114.35;104256;1264;60107;-53
2024/01/29 09:45:32;;;;;;;2.50;1.70;;;;;;;0.26;100.00;103110.14;104813;1269;71416;-55
2024/01/29 09:48:00;;;;;;;5.60;2.80;;;;;;;0.20;100.00;103104.70;104247;1264;66017;-54
2024/01/29 09:50:27;;;;;;;4.00;2.40;;;;;;;0.16;100.00;103102.77;104220;1267;71484;-52
2024/01/29 09:52:55;;;;;;;5.20;2.80;;;;;;;0.12;100.00;103100.64;104028;1267;59336;-54
2024/01/29 09:55:26;;;;;;;4.60;2.60;;;;;;;0.09;100.00;103102.41;105724;1264;60977;-53
2024/01/29 09:57:53;;;;;;;3.70;2.50;;;;;;;0.08;100.00;103105.91;104357;1266;71848;-54
2024/01/29 10:00:21;;;;;;;7.00;2.50;;;;;;;0.06;100.00;103104.77;106155;1269;69041;-54
2024/01/29 10:02:50;;;;;;;4.00;3.00;;;;;;;0.05;100.00;103105.21;104242;1268;71844;-53
2024/01/29 10:05:18;;;;;;;4.70;3.20;;;;;;;0.05;100.00;103106.11;104715;1264;59644;-56
2024/01/29 10:07:46;;;;;;;5.00;3.50;;;;;;;0.05;100.00;103109.80;104422;1260;60121;-53
2024/01/29 10:10:13;;;;;;;3.80;2.80;;;;;;;0.01;100.00;103107.00;104542;1269;71341;-54
2024/01/29 10:12:40;;;;;;;4.50;2.40;;;;;;;0.02;100.00;103102.59;108529;1260;67279;-55
2024/01/29 10:15:08;;;;;;;6.20;2.80;;;;;;;0.02;100.00;103101.73;105242;1266;71479;-53
2024/01/29 10:17:36;;;;;;;4.00;2.60;;;;;;;0.03;100.00;103100.34;104460;1260;59778;-54
2024/01/29 10:20:04;;;;;;;4.80;2.40;;;;;;;-0.00;100.00;103102.70;104539;1260;60213;-54
2024/01/29 10:22:32;;;;;;;4.30;3.10;;;;;;;-0.02;100.00;103104.41;106189;1260;71895;-54
2024/01/29 10:25:03;;;;;;;7.20;3.70;;;;;;;-0.03;100.00;103107.16;104774;1260;66120;-54
2024/01/29 10:27:31;;;;;;;6.50;3.80;;;;;;;-0.04;100.00;103107.27;105305;1263;71459;-54
2024/01/29 10:29:59;;;;;;;9.30;5.10;;;;;;;-0.06;100.00;103105.44;104404;1263;59810;-56
2024/01/29 10:32:26;;;;;;;8.80;5.50;;;;;;;-0.07;100.00;103103.40;104323;1260;60100;-55
2024/01/29 10:34:54;;;;;;;8.50;5.20;;;;;;;-0.08;100.00;103104.27;104545;1261;71860;-52
2024/01/29 10:37:22;;;;;;;6.20;3.80;;;;;;;-0.07;100.00;103105.38;104855;1260;65203;-54
2024/01/29 10:39:49;;;;;;;11.90;5.60;;;;;;;-0.07;100.00;103104.48;105365;1260;71068;-54
2024/01/29 10:42:29;;;;;;;6.30;3.30;;;;;;;-0.04;100.00;103105.52;104091;1269;59826;-54
2024/01/29 10:45:00;;;;;;;5.80;3.40;;;;;;;0.00;100.00;103103.42;104213;1260;59666;-53
2024/01/29 10:47:30;;;;;;;3.10;2.60;;;;;;;0.03;100.00;103104.24;108605;1260;73503;-55
2024/01/29 10:49:57;;;;;;;8.20;3.00;;;;;;;0.07;100.00;103104.63;108550;1260;66922;-55
2024/01/29 10:52:26;;;;;;;5.30;2.80;;;;;;;0.10;100.00;103111.27;108535;1263;70812;-54
2024/01/29 10:54:55;;;;;;;4.40;2.10;;;;;;;0.14;100.00;103117.83;108474;1260;59744;-54
2024/01/29 10:57:22;;;;;;;3.90;2.30;;;;;;;0.19;100.00;103120.36;108660;1260;58857;-54
2024/01/29 10:59:50;;;;;;;5.60;3.50;;;;;;;0.23;100.00;103116.73;108401;1260;75389;-54
2024/01/29 11:02:17;;;;;;;8.50;4.20;;;;;;;0.28;100.00;103120.46;108679;1265;66732;-54
2024/01/29 11:04:44;;;;;;;9.30;4.40;;;;;;;0.30;100.00;103121.27;108536;1263;73128;-54
2024/01/29 11:07:16;;;;;;;7.10;4.90;;;;;;;0.31;100.00;103120.29;108487;1260;58726;-54